createdAt,value
2023-03-30T00:01:18.072Z,24.73
2023-03-30T00:03:46.186Z,21.58
2023-03-30T00:06:21.106Z,20.13
2023-03-30T00:08:49.696Z,23.98
2023-03-30T00:11:18.008Z,25.95
2023-03-30T00:13:45.484Z,20.90
2023-03-30T00:16:14.379Z,23.00
2023-03-30T00:18:41.695Z,26.08
2023-03-30T00:21:11.259Z,22.33
2023-03-30T00:23:39.193Z,24.48
2023-03-30T00:26:07.488Z,23.98
2023-03-30T00:28:34.882Z,23.75
2023-03-30T00:31:02.285Z,22.25
2023-03-30T00:33:43.868Z,20.92
2023-03-30T00:36:11.998Z,25.60
2023-03-30T00:38:39.059Z,21.05
2023-03-30T00:41:07.406Z,21.10
2023-03-30T00:43:34.524Z,19.52
2023-03-30T00:46:01.902Z,23.42
2023-03-30T00:48:41.592Z,26.33
2023-03-30T00:51:10.573Z,22.05
2023-03-30T00:53:40.692Z,22.25
2023-03-30T00:56:10.060Z,23.17
2023-03-30T00:58:38.842Z,27.05
2023-03-30T01:01:09.229Z,23.23
2023-03-30T01:03:45.947Z,25.30
2023-03-30T01:06:14.961Z,22.55
2023-03-30T01:08:44.070Z,20.17
2023-03-30T01:11:11.646Z,25.50
2023-03-30T01:13:47.475Z,24.42
2023-03-30T01:16:43.160Z,25.02
2023-03-30T01:19:46.187Z,32.50
2023-03-30T01:22:35.066Z,29.65
2023-03-30T01:25:21.312Z,30.83
2023-03-30T01:28:13.496Z,28.75
2023-03-30T01:30:41.868Z,28.27
2023-03-30T01:33:40.083Z,36.67
2023-03-30T01:36:29.002Z,29.23
2023-03-30T01:39:17.827Z,28.38
2023-03-30T01:42:06.517Z,26.67
2023-03-30T01:44:44.026Z,27.25
2023-03-30T01:47:25.438Z,20.42
2023-03-30T01:50:22.924Z,25.50
2023-03-30T01:53:06.256Z,25.20
2023-03-30T01:55:48.093Z,26.40
2023-03-30T01:58:22.722Z,30.45
2023-03-30T02:00:50.737Z,23.17
2023-03-30T02:03:31.765Z,25.05
2023-03-30T02:06:14.012Z,29.33
2023-03-30T02:08:42.041Z,29.77
2023-03-30T02:11:09.128Z,30.92
2023-03-30T02:13:37.462Z,26.05
2023-03-30T02:16:17.535Z,26.80
2023-03-30T02:18:45.218Z,25.38
2023-03-30T02:21:12.479Z,33.70
2023-03-30T02:23:42.657Z,33.30
2023-03-30T02:26:10.668Z,29.25
2023-03-30T02:28:37.696Z,30.60
2023-03-30T02:31:05.750Z,28.00
2023-03-30T02:34:03.241Z,28.92
2023-03-30T02:36:37.695Z,33.80
2023-03-30T02:39:13.217Z,30.05
2023-03-30T02:41:53.392Z,30.65
2023-03-30T02:44:26.208Z,28.70
2023-03-30T02:47:03.163Z,24.42
2023-03-30T02:49:58.851Z,25.50
2023-03-30T02:52:45.057Z,25.98
2023-03-30T02:55:22.501Z,24.45
2023-03-30T02:57:53.345Z,26.83
2023-03-30T03:00:26.381Z,25.55
2023-03-30T03:03:06.815Z,27.42
2023-03-30T03:05:35.666Z,28.20
2023-03-30T03:08:02.927Z,28.55
2023-03-30T03:10:30.015Z,32.03
2023-03-30T03:12:59.408Z,30.00
2023-03-30T03:15:26.500Z,36.47
2023-03-30T03:17:58.613Z,26.33
2023-03-30T03:22:57.688Z,24.80
2023-03-30T03:25:27.273Z,28.20
2023-03-30T03:27:54.198Z,21.65
2023-03-30T03:30:21.147Z,22.98
2023-03-30T03:32:48.931Z,23.80
2023-03-30T03:35:16.198Z,25.98
2023-03-30T03:37:43.419Z,27.83
2023-03-30T03:40:11.510Z,26.92
2023-03-30T03:42:39.139Z,28.83
2023-03-30T03:45:07.690Z,26.50
2023-03-30T03:47:35.371Z,26.98
2023-03-30T03:50:04.260Z,27.67
2023-03-30T03:52:31.449Z,23.60
2023-03-30T03:54:58.564Z,23.27
2023-03-30T03:57:25.611Z,30.60
2023-03-30T03:59:53.911Z,50.13
2023-03-30T04:02:23.828Z,29.95
2023-03-30T04:04:51.731Z,30.13
2023-03-30T04:07:18.673Z,20.88
2023-03-30T04:09:46.032Z,26.83
2023-03-30T04:12:13.000Z,30.73
2023-03-30T04:14:40.273Z,24.75
2023-03-30T04:17:07.308Z,22.25
2023-03-30T04:19:36.175Z,22.52
2023-03-30T04:22:06.166Z,23.13
2023-03-30T04:24:35.634Z,24.35
2023-03-30T04:27:03.473Z,25.85
2023-03-30T04:29:30.945Z,21.67
2023-03-30T04:32:02.970Z,24.20
2023-03-30T04:34:31.263Z,27.20
2023-03-30T04:36:58.346Z,28.92
2023-03-30T04:39:30.193Z,26.52
2023-03-30T04:41:57.356Z,29.15
2023-03-30T04:44:24.372Z,30.70
2023-03-30T04:46:51.360Z,29.27
2023-03-30T04:49:18.316Z,34.13
2023-03-30T04:51:45.456Z,35.13
2023-03-30T04:54:12.698Z,34.05
2023-03-30T04:56:39.631Z,36.42
2023-03-30T04:59:06.677Z,32.10
2023-03-30T05:01:33.787Z,37.80
2023-03-30T05:04:01.129Z,33.13
2023-03-30T05:06:28.098Z,45.05
2023-03-30T05:08:55.039Z,38.95
2023-03-30T05:11:26.822Z,48.83
2023-03-30T05:13:57.111Z,41.55
2023-03-30T05:16:27.271Z,42.20
2023-03-30T05:18:54.762Z,43.38
2023-03-30T05:21:21.659Z,37.08
2023-03-30T05:23:48.531Z,39.65
2023-03-30T05:26:15.944Z,33.90
2023-03-30T05:28:43.264Z,40.60
2023-03-30T05:31:10.363Z,39.65
2023-03-30T05:33:37.538Z,37.65
2023-03-30T05:36:07.281Z,35.38
2023-03-30T05:38:34.725Z,28.88
2023-03-30T05:41:01.980Z,33.88
2023-03-30T05:43:29.059Z,33.50
2023-03-30T05:45:56.305Z,34.38
2023-03-30T05:48:23.472Z,33.58
2023-03-30T05:50:50.809Z,35.72
2023-03-30T05:53:17.757Z,35.65
2023-03-30T05:55:46.918Z,30.63
2023-03-30T05:58:14.831Z,25.33
2023-03-30T06:00:44.132Z,29.90
2023-03-30T06:03:12.234Z,30.98
2023-03-30T06:05:39.975Z,33.08
2023-03-30T06:08:08.344Z,30.95
2023-03-30T06:10:35.750Z,32.95
2023-03-30T06:13:02.858Z,34.50
2023-03-30T06:15:29.900Z,36.25
2023-03-30T06:17:57.639Z,38.97
2023-03-30T06:20:26.313Z,39.25
2023-03-30T06:22:53.162Z,32.17
2023-03-30T06:25:24.012Z,37.50
2023-03-30T06:27:51.056Z,41.90
2023-03-30T06:30:18.351Z,35.15
2023-03-30T06:32:45.280Z,29.40
2023-03-30T06:35:13.497Z,30.70
2023-03-30T06:37:40.531Z,30.05
2023-03-30T06:40:13.619Z,33.15
2023-03-30T06:42:41.321Z,33.90
2023-03-30T06:45:09.453Z,35.88
2023-03-30T06:47:37.223Z,38.42
2023-03-30T06:50:07.242Z,33.38
2023-03-30T06:52:38.011Z,32.85
2023-03-30T06:55:05.859Z,34.80
2023-03-30T06:57:32.946Z,33.17
2023-03-30T07:00:00.038Z,31.23
2023-03-30T07:02:27.607Z,25.92
2023-03-30T07:04:54.532Z,30.45
2023-03-30T07:07:21.435Z,27.52
2023-03-30T07:09:51.063Z,26.58
2023-03-30T07:12:18.037Z,27.92
2023-03-30T07:14:44.975Z,25.05
2023-03-30T07:17:12.077Z,27.35
2023-03-30T07:19:39.093Z,23.25
2023-03-30T07:22:06.285Z,32.97
2023-03-30T07:24:33.808Z,28.70
2023-03-30T07:27:00.855Z,26.38
2023-03-30T07:29:28.952Z,26.15
2023-03-30T07:31:56.814Z,28.70
2023-03-30T07:34:24.388Z,26.98
2023-03-30T07:36:51.267Z,22.67
2023-03-30T07:39:18.645Z,23.90
2023-03-30T07:41:45.712Z,21.83
2023-03-30T07:44:12.649Z,28.10
2023-03-30T07:46:39.597Z,27.08
2023-03-30T07:49:07.033Z,31.73
2023-03-30T07:51:34.700Z,32.53
2023-03-30T07:54:01.708Z,33.25
2023-03-30T07:56:28.618Z,28.30
2023-03-30T07:58:55.573Z,31.67
2023-03-30T08:01:22.632Z,23.95
2023-03-30T08:03:49.655Z,25.45
2023-03-30T08:06:16.698Z,28.55
2023-03-30T08:08:43.632Z,28.27
2023-03-30T08:11:11.395Z,30.95
2023-03-30T08:13:38.507Z,22.83
2023-03-30T08:16:06.146Z,22.13
2023-03-30T08:18:33.037Z,24.08
2023-03-30T08:21:00.022Z,30.60
2023-03-30T08:23:27.183Z,24.58
2023-03-30T08:25:57.452Z,27.63
2023-03-30T08:28:24.366Z,18.30
2023-03-30T08:30:51.294Z,18.17
2023-03-30T08:33:18.519Z,20.98
2023-03-30T08:35:46.740Z,19.52
2023-03-30T08:38:17.575Z,23.98
2023-03-30T08:40:47.320Z,20.73
2023-03-30T08:43:17.254Z,22.27
2023-03-30T08:45:44.667Z,18.25
2023-03-30T08:48:19.718Z,22.83
2023-03-30T08:50:54.112Z,25.08
2023-03-30T08:53:21.248Z,23.63
2023-03-30T08:56:01.778Z,21.95
2023-03-30T08:58:53.963Z,21.20
2023-03-30T09:01:51.563Z,20.30
2023-03-30T09:04:18.835Z,22.63
2023-03-30T09:07:17.510Z,19.73
2023-03-30T09:09:48.637Z,19.00
2023-03-30T09:12:21.844Z,20.88
2023-03-30T09:14:56.635Z,29.85
2023-03-30T09:17:28.623Z,21.23
2023-03-30T09:19:58.813Z,21.67
2023-03-30T09:22:31.753Z,22.55
2023-03-30T09:24:59.524Z,18.50
2023-03-30T09:27:41.782Z,19.52
2023-03-30T09:30:18.367Z,20.20
2023-03-30T09:32:53.615Z,24.40
2023-03-30T09:35:26.192Z,23.58
2023-03-30T09:37:53.516Z,20.38
2023-03-30T09:40:26.684Z,23.48
2023-03-30T09:43:08.064Z,21.70
2023-03-30T09:45:35.046Z,28.23
2023-03-30T09:48:08.686Z,24.88
2023-03-30T09:50:44.324Z,20.85
2023-03-30T09:53:25.929Z,22.35
2023-03-30T09:56:04.479Z,18.70
2023-03-30T09:58:33.951Z,19.52
2023-03-30T10:01:07.173Z,22.02
2023-03-30T10:03:35.292Z,25.85
2023-03-30T10:06:07.503Z,23.77
2023-03-30T10:08:44.226Z,20.67
2023-03-30T10:11:11.785Z,17.88
2023-03-30T10:13:42.165Z,19.90
2023-03-30T10:16:24.015Z,27.10
2023-03-30T10:18:57.917Z,20.98
2023-03-30T10:21:28.228Z,31.40
2023-03-30T10:24:10.253Z,19.65
2023-03-30T10:26:38.663Z,25.27
2023-03-30T10:29:11.171Z,19.85
2023-03-30T10:31:40.591Z,21.95
2023-03-30T10:34:17.741Z,18.30
2023-03-30T10:36:50.061Z,21.05
2023-03-30T10:39:24.877Z,19.98
2023-03-30T10:41:52.797Z,25.05
2023-03-30T10:44:36.213Z,18.00
2023-03-30T10:47:33.350Z,18.58
2023-03-30T10:50:22.480Z,15.05
2023-03-30T10:53:06.728Z,22.08
2023-03-30T10:56:06.944Z,18.65
2023-03-30T10:58:37.778Z,19.13
2023-03-30T11:01:26.097Z,17.77
2023-03-30T11:03:58.369Z,22.77
2023-03-30T11:06:39.978Z,19.63
2023-03-30T11:09:14.611Z,17.67
2023-03-30T11:11:49.162Z,18.88
2023-03-30T11:14:21.652Z,14.07
2023-03-30T11:17:02.077Z,15.75
2023-03-30T11:19:35.192Z,14.55
2023-03-30T11:22:35.412Z,18.15
2023-03-30T11:25:03.922Z,15.98
2023-03-30T11:27:32.649Z,20.30
2023-03-30T11:30:32.513Z,18.67
2023-03-30T11:33:17.854Z,18.90
2023-03-30T11:36:11.613Z,18.63
2023-03-30T11:38:44.881Z,21.08
2023-03-30T11:41:22.909Z,19.88
2023-03-30T11:43:59.185Z,17.17
2023-03-30T11:46:42.946Z,16.50
2023-03-30T11:49:17.214Z,22.73
2023-03-30T11:52:00.937Z,16.88
2023-03-30T11:54:49.738Z,18.17
2023-03-30T11:57:41.842Z,15.88
2023-03-30T12:00:26.796Z,20.17
2023-03-30T12:03:21.549Z,22.13
2023-03-30T12:06:06.634Z,16.23
2023-03-30T12:09:11.329Z,27.02
2023-03-30T12:12:12.261Z,23.60
2023-03-30T12:15:13.234Z,23.88
2023-03-30T12:17:48.443Z,17.55
2023-03-30T12:20:25.762Z,22.30
2023-03-30T12:22:58.795Z,17.95
2023-03-30T12:25:56.520Z,19.00
2023-03-30T12:28:35.738Z,17.85
2023-03-30T12:31:14.976Z,17.33
2023-03-30T12:33:52.382Z,17.75
2023-03-30T12:36:35.491Z,15.63
2023-03-30T12:39:06.952Z,23.10
2023-03-30T12:41:43.296Z,19.70
2023-03-30T12:44:25.400Z,15.75
2023-03-30T12:46:58.547Z,16.50
2023-03-30T12:49:37.732Z,16.83
2023-03-30T12:52:18.104Z,16.08
2023-03-30T12:54:51.266Z,16.65
2023-03-30T12:57:22.477Z,19.55
2023-03-30T13:00:09.474Z,23.07
2023-03-30T13:02:42.496Z,23.95
2023-03-30T13:05:23.184Z,27.13
2023-03-30T13:07:51.322Z,22.52
2023-03-30T13:10:30.672Z,23.70
2023-03-30T13:13:02.404Z,27.85
2023-03-30T13:15:40.666Z,23.17
2023-03-30T13:18:07.641Z,22.85
2023-03-30T13:20:58.522Z,21.08
2023-03-30T13:23:27.825Z,28.42
2023-03-30T13:26:10.174Z,20.25
2023-03-30T13:31:21.699Z,23.52
2023-03-30T13:34:13.263Z,25.20
2023-03-30T13:36:59.003Z,20.90
2023-03-30T13:39:30.778Z,19.00
2023-03-30T13:42:18.808Z,26.20
2023-03-30T13:45:18.096Z,19.88
2023-03-30T13:48:23.718Z,19.70
2023-03-30T13:50:56.042Z,21.73
2023-03-30T13:55:50.723Z,21.75
2023-03-30T13:58:27.708Z,19.67
2023-03-30T14:00:59.354Z,17.50
2023-03-30T14:03:29.164Z,15.80
2023-03-30T14:06:08.616Z,17.63
2023-03-30T14:08:38.032Z,18.70
2023-03-30T14:11:12.177Z,17.90
2023-03-30T14:13:39.119Z,21.02
2023-03-30T14:16:07.494Z,21.42
2023-03-30T14:18:35.200Z,19.35
2023-03-30T14:21:04.644Z,25.90
2023-03-30T14:23:41.282Z,26.60
2023-03-30T14:26:22.595Z,23.30
2023-03-30T14:28:54.334Z,19.05
2023-03-30T14:31:22.351Z,20.75
2023-03-30T14:33:49.883Z,19.33
2023-03-30T14:36:20.967Z,20.65
2023-03-30T14:38:53.077Z,18.10
2023-03-30T14:41:27.994Z,25.20
2023-03-30T14:44:01.421Z,18.63
2023-03-30T14:46:42.612Z,20.20
2023-03-30T14:49:18.502Z,26.27
2023-03-30T14:51:48.240Z,27.77
2023-03-30T14:54:21.672Z,25.90
2023-03-30T14:57:11.469Z,25.63
2023-03-30T14:59:46.488Z,48.45
2023-03-30T15:02:21.678Z,21.77
2023-03-30T15:04:49.590Z,26.98
2023-03-30T15:07:18.029Z,29.63
2023-03-30T15:09:48.520Z,21.02
2023-03-30T15:12:22.909Z,25.40
2023-03-30T15:14:50.354Z,25.25
2023-03-30T15:17:22.805Z,25.75
2023-03-30T15:19:52.190Z,19.63
2023-03-30T15:22:37.007Z,26.05
2023-03-30T15:25:08.173Z,25.65
2023-03-30T15:27:36.842Z,26.50
2023-03-30T15:30:04.647Z,25.15
2023-03-30T15:32:40.002Z,34.15
2023-03-30T15:35:07.233Z,31.85
2023-03-30T15:37:36.108Z,23.88
2023-03-30T15:40:15.451Z,35.10
2023-03-30T15:42:42.609Z,34.88
2023-03-30T15:45:54.438Z,27.88
2023-03-30T15:48:48.327Z,28.88
2023-03-30T15:51:17.446Z,31.38
2023-03-30T15:53:45.657Z,36.38
2023-03-30T15:56:18.527Z,31.27
2023-03-30T15:58:45.576Z,30.90
2023-03-30T16:01:15.407Z,35.35
2023-03-30T16:03:56.669Z,35.10
2023-03-30T16:06:24.051Z,41.40
2023-03-30T16:08:50.904Z,33.10
2023-03-30T16:11:18.787Z,48.75
2023-03-30T16:13:48.059Z,29.70
2023-03-30T16:16:16.080Z,34.30
2023-03-30T16:18:43.081Z,28.08
2023-03-30T16:21:11.082Z,40.60
2023-03-30T16:23:38.585Z,38.60
2023-03-30T16:26:09.654Z,46.40
2023-03-30T16:28:36.669Z,39.33
2023-03-30T16:31:07.846Z,45.90
2023-03-30T16:33:34.724Z,46.65
2023-03-30T16:36:01.671Z,42.17
2023-03-30T16:38:28.592Z,54.53
2023-03-30T16:40:57.861Z,44.00
2023-03-30T16:43:26.010Z,39.25
2023-03-30T16:45:53.152Z,44.30
2023-03-30T16:48:20.112Z,44.05
2023-03-30T16:50:50.842Z,37.85
2023-03-30T16:53:17.897Z,40.50
2023-03-30T16:55:45.430Z,42.90
2023-03-30T16:58:14.345Z,35.25
2023-03-30T17:00:47.525Z,35.88
2023-03-30T17:03:14.916Z,41.63
2023-03-30T17:05:42.172Z,46.13
2023-03-30T17:08:21.632Z,51.13
2023-03-30T17:10:49.339Z,50.83
2023-03-30T17:13:16.444Z,47.22
2023-03-30T17:15:43.641Z,48.95
2023-03-30T17:18:15.022Z,45.90
2023-03-30T17:20:49.320Z,58.57
2023-03-30T17:23:19.135Z,53.42
2023-03-30T17:25:49.003Z,56.72
2023-03-30T17:28:31.702Z,56.95
2023-03-30T17:31:00.613Z,56.88
2023-03-30T17:33:28.011Z,51.95
2023-03-30T17:36:21.904Z,44.60
2023-03-30T17:38:50.049Z,46.90
2023-03-30T17:41:19.464Z,46.20
2023-03-30T17:43:48.015Z,35.90
2023-03-30T17:46:17.444Z,37.70
2023-03-30T17:48:44.957Z,40.35
2023-03-30T17:51:14.105Z,46.88
2023-03-30T17:53:41.059Z,37.60
2023-03-30T17:56:08.052Z,49.67
2023-03-30T17:58:36.419Z,42.63
2023-03-30T18:01:09.094Z,45.88
2023-03-30T18:03:39.720Z,53.25
2023-03-30T18:06:06.910Z,42.22
2023-03-30T18:08:33.864Z,53.60
2023-03-30T18:11:01.662Z,54.80
2023-03-30T18:13:30.599Z,54.95
2023-03-30T18:15:59.266Z,57.95
2023-03-30T18:18:29.803Z,51.55
2023-03-30T18:21:02.540Z,44.50
2023-03-30T18:23:30.751Z,43.53
2023-03-30T18:25:57.885Z,51.83
2023-03-30T18:28:28.506Z,48.50
2023-03-30T18:31:00.879Z,57.53
2023-03-30T18:33:28.272Z,51.17
2023-03-30T18:36:02.888Z,56.63
2023-03-30T18:38:30.052Z,54.33
2023-03-30T18:41:00.890Z,52.10
2023-03-30T18:43:27.774Z,51.60
2023-03-30T18:45:57.932Z,57.50
2023-03-30T18:48:27.907Z,53.38
2023-03-30T18:50:55.859Z,43.97
2023-03-30T18:56:05.247Z,45.95
2023-03-30T18:58:41.940Z,38.65
2023-03-30T19:01:13.548Z,37.53
2023-03-30T19:03:41.779Z,33.72
2023-03-30T19:06:13.913Z,26.95
2023-03-30T19:08:40.867Z,22.00
2023-03-30T19:11:07.945Z,25.25
2023-03-30T19:13:34.904Z,19.40
2023-03-30T19:16:06.133Z,13.77
2023-03-30T19:18:35.413Z,15.10
2023-03-30T19:21:02.410Z,10.80
2023-03-30T19:23:30.038Z,9.20
2023-03-30T19:26:02.543Z,8.75
2023-03-30T19:28:29.426Z,9.70
2023-03-30T19:30:56.307Z,8.07
2023-03-30T19:33:23.117Z,3.88
2023-03-30T19:35:50.201Z,6.05
2023-03-30T19:38:17.339Z,4.65
2023-03-30T19:40:44.259Z,4.13
2023-03-30T19:43:11.268Z,6.88
2023-03-30T19:45:38.508Z,3.55
2023-03-30T19:48:05.605Z,4.75
2023-03-30T19:50:32.544Z,3.50
2023-03-30T19:52:59.755Z,3.50
2023-03-30T19:55:27.387Z,3.92
2023-03-30T19:57:54.439Z,6.68
2023-03-30T20:00:21.511Z,4.70
2023-03-30T20:02:53.961Z,5.70
2023-03-30T20:05:23.671Z,10.35
2023-03-30T20:07:50.880Z,9.05
2023-03-30T20:10:23.012Z,10.30
2023-03-30T20:12:51.299Z,7.90
2023-03-30T20:15:20.065Z,7.63
2023-03-30T20:17:47.223Z,8.60
2023-03-30T20:20:17.065Z,6.95
2023-03-30T20:22:45.372Z,14.13
2023-03-30T20:25:14.033Z,11.27
2023-03-30T20:27:41.710Z,12.45
2023-03-30T20:30:09.745Z,11.95
2023-03-30T20:32:36.701Z,14.52
2023-03-30T20:35:04.450Z,12.02
2023-03-30T20:37:31.483Z,10.98
2023-03-30T20:40:09.523Z,11.27
2023-03-30T20:42:40.251Z,7.57
2023-03-30T20:45:08.893Z,7.38
2023-03-30T20:47:36.161Z,8.95
2023-03-30T20:50:06.883Z,10.32
2023-03-30T20:52:34.403Z,6.40
2023-03-30T20:55:01.379Z,7.15
2023-03-30T20:57:28.422Z,6.07
2023-03-30T20:59:57.953Z,5.63
2023-03-30T21:02:25.147Z,4.38
2023-03-30T21:04:56.902Z,8.38
2023-03-30T21:07:24.832Z,4.47
2023-03-30T21:09:52.020Z,5.88
2023-03-30T21:12:19.484Z,3.95
2023-03-30T21:14:46.512Z,3.63
2023-03-30T21:17:13.721Z,4.05
2023-03-30T21:19:40.864Z,4.53
2023-03-30T21:22:07.943Z,5.65
2023-03-30T21:24:35.210Z,6.70
2023-03-30T21:27:02.209Z,7.38
2023-03-30T21:29:29.062Z,7.68
2023-03-30T21:31:57.815Z,8.68
2023-03-30T21:34:24.926Z,11.57
2023-03-30T21:36:52.256Z,8.18
2023-03-30T21:39:19.458Z,11.45
2023-03-30T21:41:46.647Z,9.05
2023-03-30T21:44:15.288Z,5.80
2023-03-30T21:46:42.171Z,4.90
2023-03-30T21:49:09.234Z,5.00
2023-03-30T21:51:36.371Z,4.35
2023-03-30T21:54:03.629Z,4.03
2023-03-30T21:56:31.373Z,8.63
2023-03-30T21:58:58.953Z,5.82
2023-03-30T22:01:26.683Z,5.28
2023-03-30T22:03:54.377Z,6.97
2023-03-30T22:06:21.526Z,8.10
2023-03-30T22:08:48.618Z,6.70
2023-03-30T22:11:21.289Z,11.13
2023-03-30T22:13:49.116Z,9.57
2023-03-30T22:16:19.038Z,8.13
2023-03-30T22:18:46.652Z,7.70
2023-03-30T22:21:19.943Z,10.18
2023-03-30T22:23:47.403Z,6.90
2023-03-30T22:26:14.619Z,13.63
2023-03-30T22:28:41.974Z,7.05
2023-03-30T22:31:11.334Z,7.25
2023-03-30T22:33:40.557Z,7.50
2023-03-30T22:36:19.578Z,7.40
2023-03-30T22:38:50.985Z,5.85
2023-03-30T22:41:26.784Z,6.13
2023-03-30T22:43:56.260Z,7.03
2023-03-30T22:46:24.827Z,11.23
2023-03-30T22:48:52.667Z,7.70
2023-03-30T22:51:26.589Z,8.50
2023-03-30T22:53:58.050Z,7.55
2023-03-30T22:56:25.905Z,8.43
2023-03-30T22:58:52.948Z,8.50
2023-03-30T23:01:21.787Z,8.75
2023-03-30T23:03:49.030Z,10.32
2023-03-30T23:06:19.188Z,7.45
2023-03-30T23:08:48.937Z,7.93
2023-03-30T23:11:16.562Z,8.63
2023-03-30T23:13:43.788Z,9.77
2023-03-30T23:16:11.043Z,5.93
2023-03-30T23:18:38.508Z,8.00
2023-03-30T23:21:07.205Z,6.93
2023-03-30T23:23:37.965Z,6.28
2023-03-30T23:26:10.442Z,6.97
2023-03-30T23:28:39.094Z,8.25
2023-03-30T23:31:12.309Z,7.65
2023-03-30T23:33:40.420Z,9.18
2023-03-30T23:36:08.389Z,6.78
2023-03-30T23:38:36.310Z,8.38
2023-03-30T23:41:03.188Z,12.38
2023-03-30T23:43:30.555Z,5.03
2023-03-30T23:45:57.535Z,8.52
2023-03-30T23:48:24.443Z,12.93
2023-03-30T23:50:51.373Z,6.93
2023-03-30T23:53:19.820Z,8.57
2023-03-30T23:55:50.223Z,6.75
2023-03-30T23:58:18.324Z,8.80
